Etusivu
METAR-TAF:

METAR-TAF

Lentoasemat :

Funafuti, Tuvalu

Funafutin kansainvälinen lentoasema

Leveyspiiri: 08-31S, Pituuspiiri: 179-13E, korkeus merenpinnasta: 1 m

Tämänhetkinen sää

Tämä raportti tehtiin 46 minuuttia sitten, kello 01.00 UTC
tyyntä
Lämpötila 32°C
Kosteus 75%
Ilmanpaine 1009 hPa
Näkyvyys 10 km tai enemmän
Hajanaisia pilviä 1800 ft:n korkeudessa, Kasvava cumulus-pilvi.
Hajonneita pilviä 31000 ft:n korkeudessa

METAR: NGFU 230100Z 00000KT 9999 SCT018TCU BKN310 32/27 Q1009

Aika: 13:46 (01:46 UTC)

Sääennuste

Tämä raportti tehtiin 2 tuntia ja 15 minuuttia sitten, kello 23.31 UTC
Ennuste voimassa 23. päivästä klo 00 UTC - 23. päivään klo 24 UTC
Tuuli 10 kn idästä
Näkyvyys 10 km tai enemmän
Hajanaisia pilviä 1800 ft:n korkeudessa
Hajonneita pilviä 10000 ft:n korkeudessa

TAF: NGFU 222331Z 2300/2324 09010KT 9999 SCT018 BKN100

Säähavainnot ja -ennusteet yli 4000 lentoasemalta (METAR- ja TAF-raportit).

Käytössä olevat sääasemat on merkitty karttaan keltaisilla ja punaisilla pisteillä.

Aseta hiiri pisteen päälle nähdäksesi sääaseman nimen.

Klikkaa sitten nähdäksesi säähavainnot ja -ennusteet.

Kartan vaihtaminen: klikkaa mustalla rastilla varustettuja vihreitä pisteitä, niin voit zoomata sisään; viivalla varustettua vihreää pistettä, niin voit zoomata ulos tai vihreitä nuolia, niin pääset viereisille kartoille.


METAR-TAF: